Weather at Yarra Bank Heliport

Public forecast

Using degrees Celsius for public forecast. Weather courtesy of forecast.io.

Closest aviation weather report (METAR) to Yarra Bank Heliport

Closest report is Melbourne International Airport, 10.4 nm (19.2 km) NNW.

2024/07/21 12:30 (retrieved 37 minutes ago)

YMML 211230Z 01010KT CAVOK 11/09 Q1020 SCT095 BKN180

Closest aviation forecast (TAF) to Yarra Bank Heliport

Closest forecast is Melbourne International Airport, 10.4 nm (19.2 km) NNW.

2024/07/21 12:48 Ammendment (retrieved 19 minutes ago)

TAF AMD YMML 211140Z 2112/2218 01014KT 9999 SCT045 FM211700 01014KT 9999 -SHRA SCT045 FM220200 34015KT 9999 NSW FEW030 SCT050 FM220600 01012KT 9999 FEW030